sensor_id;sensor_type;location;lat;lon;timestamp;P1;durP1;ratioP1;P2;durP2;ratioP2
1454;SDS011;721;48.168;12.818;2022-08-19T00:00:37;7.30;;;6.70;;
1454;SDS011;721;48.168;12.818;2022-08-19T00:03:04;8.40;;;7.70;;
1454;SDS011;721;48.168;12.818;2022-08-19T00:05:32;11.53;;;8.93;;
1454;SDS011;721;48.168;12.818;2022-08-19T00:07:59;9.40;;;8.53;;
1454;SDS011;721;48.168;12.818;2022-08-19T00:10:27;8.23;;;7.50;;
1454;SDS011;721;48.168;12.818;2022-08-19T00:12:54;8.63;;;7.93;;
1454;SDS011;721;48.168;12.818;2022-08-19T00:15:21;9.90;;;9.10;;
1454;SDS011;721;48.168;12.818;2022-08-19T00:17:49;10.70;;;9.70;;
1454;SDS011;721;48.168;12.818;2022-08-19T00:20:17;9.30;;;8.40;;
1454;SDS011;721;48.168;12.818;2022-08-19T00:22:46;9.83;;;8.63;;
1454;SDS011;721;48.168;12.818;2022-08-19T00:25:14;9.73;;;8.90;;
1454;SDS011;721;48.168;12.818;2022-08-19T00:27:42;9.63;;;8.70;;
1454;SDS011;721;48.168;12.818;2022-08-19T00:30:10;10.80;;;9.60;;
1454;SDS011;721;48.168;12.818;2022-08-19T00:32:37;11.57;;;10.60;;
1454;SDS011;721;48.168;12.818;2022-08-19T00:35:05;10.50;;;9.43;;
1454;SDS011;721;48.168;12.818;2022-08-19T00:37:32;11.23;;;10.23;;
1454;SDS011;721;48.168;12.818;2022-08-19T00:40:00;10.53;;;9.63;;
1454;SDS011;721;48.168;12.818;2022-08-19T00:42:27;9.87;;;8.93;;
1454;SDS011;721;48.168;12.818;2022-08-19T00:44:55;10.77;;;9.77;;
1454;SDS011;721;48.168;12.818;2022-08-19T00:47:22;10.97;;;9.93;;
1454;SDS011;721;48.168;12.818;2022-08-19T00:49:50;13.30;;;10.43;;
1454;SDS011;721;48.168;12.818;2022-08-19T00:52:21;10.43;;;9.43;;
1454;SDS011;721;48.168;12.818;2022-08-19T00:54:50;11.20;;;10.17;;
1454;SDS011;721;48.168;12.818;2022-08-19T00:57:19;11.70;;;10.60;;
1454;SDS011;721;48.168;12.818;2022-08-19T00:59:52;10.47;;;9.53;;
1454;SDS011;721;48.168;12.818;2022-08-19T01:02:23;10.70;;;9.70;;
1454;SDS011;721;48.168;12.818;2022-08-19T01:04:51;10.07;;;9.17;;
1454;SDS011;721;48.168;12.818;2022-08-19T01:07:17;10.53;;;9.33;;
1454;SDS011;721;48.168;12.818;2022-08-19T01:09:44;10.27;;;9.37;;
1454;SDS011;721;48.168;12.818;2022-08-19T01:12:12;10.67;;;9.77;;
1454;SDS011;721;48.168;12.818;2022-08-19T01:14:39;12.43;;;11.33;;
1454;SDS011;721;48.168;12.818;2022-08-19T01:17:08;10.53;;;9.50;;
1454;SDS011;721;48.168;12.818;2022-08-19T01:19:36;10.97;;;10.00;;
1454;SDS011;721;48.168;12.818;2022-08-19T01:22:07;10.10;;;9.20;;
1454;SDS011;721;48.168;12.818;2022-08-19T01:24:40;11.57;;;10.60;;
1454;SDS011;721;48.168;12.818;2022-08-19T01:27:07;10.27;;;9.33;;
1454;SDS011;721;48.168;12.818;2022-08-19T01:29:36;11.70;;;10.60;;
1454;SDS011;721;48.168;12.818;2022-08-19T01:32:05;11.73;;;10.50;;
1454;SDS011;721;48.168;12.818;2022-08-19T01:34:33;10.37;;;9.37;;
1454;SDS011;721;48.168;12.818;2022-08-19T01:37:00;11.23;;;10.10;;
1454;SDS011;721;48.168;12.818;2022-08-19T01:39:31;10.10;;;9.10;;
1454;SDS011;721;48.168;12.818;2022-08-19T01:42:00;9.87;;;9.07;;
1454;SDS011;721;48.168;12.818;2022-08-19T01:44:28;10.63;;;9.53;;
1454;SDS011;721;48.168;12.818;2022-08-19T01:46:55;9.73;;;8.83;;
1454;SDS011;721;48.168;12.818;2022-08-19T01:49:23;9.70;;;8.70;;
1454;SDS011;721;48.168;12.818;2022-08-19T01:51:51;10.60;;;9.50;;
1454;SDS011;721;48.168;12.818;2022-08-19T01:54:21;11.83;;;10.63;;
1454;SDS011;721;48.168;12.818;2022-08-19T01:56:49;10.10;;;9.10;;
1454;SDS011;721;48.168;12.818;2022-08-19T01:59:19;12.00;;;9.20;;
1454;SDS011;721;48.168;12.818;2022-08-19T02:01:48;10.47;;;9.57;;
1454;SDS011;721;48.168;12.818;2022-08-19T02:04:15;10.30;;;9.33;;
1454;SDS011;721;48.168;12.818;2022-08-19T02:06:41;10.30;;;9.30;;
1454;SDS011;721;48.168;12.818;2022-08-19T02:09:09;10.70;;;9.70;;
1454;SDS011;721;48.168;12.818;2022-08-19T02:11:36;10.33;;;9.33;;
1454;SDS011;721;48.168;12.818;2022-08-19T02:14:05;11.87;;;9.90;;
1454;SDS011;721;48.168;12.818;2022-08-19T02:16:35;9.00;;;8.10;;
1454;SDS011;721;48.168;12.818;2022-08-19T02:19:03;11.10;;;10.20;;
1454;SDS011;721;48.168;12.818;2022-08-19T02:21:30;10.37;;;9.37;;
1454;SDS011;721;48.168;12.818;2022-08-19T02:23:58;9.23;;;8.33;;
1454;SDS011;721;48.168;12.818;2022-08-19T02:26:25;9.30;;;8.50;;
1454;SDS011;721;48.168;12.818;2022-08-19T02:28:53;9.30;;;8.57;;
1454;SDS011;721;48.168;12.818;2022-08-19T02:31:21;9.43;;;8.53;;
1454;SDS011;721;48.168;12.818;2022-08-19T02:33:50;9.60;;;8.80;;
1454;SDS011;721;48.168;12.818;2022-08-19T02:36:18;9.83;;;8.87;;
1454;SDS011;721;48.168;12.818;2022-08-19T02:38:45;10.27;;;9.23;;
1454;SDS011;721;48.168;12.818;2022-08-19T02:41:14;9.37;;;8.47;;
1454;SDS011;721;48.168;12.818;2022-08-19T02:43:42;8.10;;;7.37;;
1454;SDS011;721;48.168;12.818;2022-08-19T02:46:13;9.23;;;8.30;;
1454;SDS011;721;48.168;12.818;2022-08-19T02:48:42;10.23;;;9.43;;
1454;SDS011;721;48.168;12.818;2022-08-19T02:51:16;8.73;;;8.03;;
1454;SDS011;721;48.168;12.818;2022-08-19T02:53:44;9.90;;;9.10;;
1454;SDS011;721;48.168;12.818;2022-08-19T02:56:11;9.60;;;8.80;;
1454;SDS011;721;48.168;12.818;2022-08-19T02:58:38;9.37;;;8.67;;
1454;SDS011;721;48.168;12.818;2022-08-19T03:01:06;8.17;;;7.47;;
1454;SDS011;721;48.168;12.818;2022-08-19T03:03:33;9.57;;;8.67;;
1454;SDS011;721;48.168;12.818;2022-08-19T03:06:08;9.40;;;8.60;;
1454;SDS011;721;48.168;12.818;2022-08-19T03:08:42;9.50;;;8.70;;
1454;SDS011;721;48.168;12.818;2022-08-19T03:11:14;8.53;;;7.80;;
1454;SDS011;721;48.168;12.818;2022-08-19T03:13:41;10.30;;;8.47;;
1454;SDS011;721;48.168;12.818;2022-08-19T03:16:09;9.70;;;8.80;;
1454;SDS011;721;48.168;12.818;2022-08-19T03:18:36;9.13;;;8.27;;
1454;SDS011;721;48.168;12.818;2022-08-19T03:21:04;8.13;;;7.50;;
1454;SDS011;721;48.168;12.818;2022-08-19T03:23:31;9.97;;;8.53;;
1454;SDS011;721;48.168;12.818;2022-08-19T03:26:02;8.57;;;7.87;;
1454;SDS011;721;48.168;12.818;2022-08-19T03:28:31;8.50;;;7.70;;
1454;SDS011;721;48.168;12.818;2022-08-19T03:30:59;8.13;;;7.43;;
1454;SDS011;721;48.168;12.818;2022-08-19T03:33:28;9.23;;;8.37;;
1454;SDS011;721;48.168;12.818;2022-08-19T03:36:00;9.20;;;8.30;;
1454;SDS011;721;48.168;12.818;2022-08-19T03:38:30;9.67;;;7.70;;
1454;SDS011;721;48.168;12.818;2022-08-19T03:40:57;8.60;;;7.90;;
1454;SDS011;721;48.168;12.818;2022-08-19T03:43:27;8.50;;;7.70;;
1454;SDS011;721;48.168;12.818;2022-08-19T03:45:59;7.93;;;7.27;;
1454;SDS011;721;48.168;12.818;2022-08-19T03:48:27;7.17;;;6.40;;
1454;SDS011;721;48.168;12.818;2022-08-19T03:50:55;7.60;;;6.90;;
1454;SDS011;721;48.168;12.818;2022-08-19T03:53:23;7.13;;;6.53;;
1454;SDS011;721;48.168;12.818;2022-08-19T03:55:51;7.03;;;6.47;;
1454;SDS011;721;48.168;12.818;2022-08-19T03:58:19;7.17;;;6.67;;
1454;SDS011;721;48.168;12.818;2022-08-19T04:00:46;7.33;;;6.73;;
1454;SDS011;721;48.168;12.818;2022-08-19T04:03:13;7.37;;;6.87;;
1454;SDS011;721;48.168;12.818;2022-08-19T04:05:39;8.23;;;7.53;;
1454;SDS011;721;48.168;12.818;2022-08-19T04:08:06;7.50;;;6.90;;
1454;SDS011;721;48.168;12.818;2022-08-19T04:10:34;7.07;;;6.53;;
1454;SDS011;721;48.168;12.818;2022-08-19T04:13:01;7.93;;;7.23;;
1454;SDS011;721;48.168;12.818;2022-08-19T04:15:30;6.93;;;6.33;;
1454;SDS011;721;48.168;12.818;2022-08-19T04:18:03;6.97;;;6.37;;
1454;SDS011;721;48.168;12.818;2022-08-19T04:20:31;6.97;;;6.37;;
1454;SDS011;721;48.168;12.818;2022-08-19T04:22:57;6.70;;;6.20;;
1454;SDS011;721;48.168;12.818;2022-08-19T04:25:24;6.97;;;6.37;;
1454;SDS011;721;48.168;12.818;2022-08-19T04:27:51;7.13;;;6.63;;
1454;SDS011;721;48.168;12.818;2022-08-19T04:30:18;7.30;;;6.80;;
1454;SDS011;721;48.168;12.818;2022-08-19T04:32:48;5.33;;;4.90;;
1454;SDS011;721;48.168;12.818;2022-08-19T04:35:15;7.63;;;7.03;;
1454;SDS011;721;48.168;12.818;2022-08-19T04:37:42;6.43;;;5.83;;
1454;SDS011;721;48.168;12.818;2022-08-19T04:40:09;7.50;;;6.80;;
1454;SDS011;721;48.168;12.818;2022-08-19T04:42:54;6.37;;;5.87;;
1454;SDS011;721;48.168;12.818;2022-08-19T04:45:21;5.73;;;5.23;;
1454;SDS011;721;48.168;12.818;2022-08-19T04:47:49;5.93;;;5.53;;
1454;SDS011;721;48.168;12.818;2022-08-19T04:50:21;6.80;;;6.10;;
1454;SDS011;721;48.168;12.818;2022-08-19T04:52:49;6.43;;;5.90;;
1454;SDS011;721;48.168;12.818;2022-08-19T04:55:16;5.40;;;5.00;;
1454;SDS011;721;48.168;12.818;2022-08-19T04:57:43;5.17;;;4.83;;
1454;SDS011;721;48.168;12.818;2022-08-19T05:00:10;6.03;;;5.53;;
1454;SDS011;721;48.168;12.818;2022-08-19T05:02:38;6.47;;;5.97;;
1454;SDS011;721;48.168;12.818;2022-08-19T05:05:06;5.73;;;5.33;;
1454;SDS011;721;48.168;12.818;2022-08-19T05:07:33;6.53;;;5.93;;
1454;SDS011;721;48.168;12.818;2022-08-19T05:10:01;6.97;;;6.37;;
1454;SDS011;721;48.168;12.818;2022-08-19T05:12:30;6.83;;;6.23;;
1454;SDS011;721;48.168;12.818;2022-08-19T05:14:58;6.77;;;6.10;;
1454;SDS011;721;48.168;12.818;2022-08-19T05:17:25;7.60;;;6.87;;
1454;SDS011;721;48.168;12.818;2022-08-19T05:19:53;6.93;;;5.90;;
1454;SDS011;721;48.168;12.818;2022-08-19T05:22:39;12.53;;;6.60;;
1454;SDS011;721;48.168;12.818;2022-08-19T05:25:07;6.83;;;6.23;;
1454;SDS011;721;48.168;12.818;2022-08-19T05:27:37;6.93;;;6.33;;
1454;SDS011;721;48.168;12.818;2022-08-19T05:30:04;7.57;;;6.97;;
1454;SDS011;721;48.168;12.818;2022-08-19T05:32:31;6.40;;;5.90;;
1454;SDS011;721;48.168;12.818;2022-08-19T05:34:58;6.87;;;5.20;;
1454;SDS011;721;48.168;12.818;2022-08-19T05:37:25;5.93;;;5.50;;
1454;SDS011;721;48.168;12.818;2022-08-19T05:39:54;7.13;;;6.53;;
1454;SDS011;721;48.168;12.818;2022-08-19T05:42:21;6.90;;;6.40;;
1454;SDS011;721;48.168;12.818;2022-08-19T05:44:48;8.27;;;6.13;;
1454;SDS011;721;48.168;12.818;2022-08-19T05:47:16;6.93;;;6.33;;
1454;SDS011;721;48.168;12.818;2022-08-19T05:49:45;6.33;;;5.83;;
1454;SDS011;721;48.168;12.818;2022-08-19T05:52:12;7.00;;;6.40;;
1454;SDS011;721;48.168;12.818;2022-08-19T05:54:41;6.33;;;5.77;;
1454;SDS011;721;48.168;12.818;2022-08-19T05:57:11;6.90;;;6.23;;
1454;SDS011;721;48.168;12.818;2022-08-19T05:59:38;11.10;;;6.90;;
1454;SDS011;721;48.168;12.818;2022-08-19T06:02:05;6.23;;;5.63;;
1454;SDS011;721;48.168;12.818;2022-08-19T06:04:32;9.10;;;7.50;;
1454;SDS011;721;48.168;12.818;2022-08-19T06:07:00;6.97;;;5.53;;
1454;SDS011;721;48.168;12.818;2022-08-19T06:09:27;6.90;;;6.40;;
1454;SDS011;721;48.168;12.818;2022-08-19T06:11:55;7.50;;;6.17;;
1454;SDS011;721;48.168;12.818;2022-08-19T06:14:26;7.40;;;6.70;;
1454;SDS011;721;48.168;12.818;2022-08-19T06:16:54;7.23;;;6.50;;
1454;SDS011;721;48.168;12.818;2022-08-19T06:19:24;8.23;;;7.53;;
1454;SDS011;721;48.168;12.818;2022-08-19T06:21:51;6.90;;;6.20;;
1454;SDS011;721;48.168;12.818;2022-08-19T06:24:20;7.40;;;6.30;;
1454;SDS011;721;48.168;12.818;2022-08-19T06:26:49;6.80;;;6.30;;
1454;SDS011;721;48.168;12.818;2022-08-19T06:29:18;8.30;;;7.70;;
1454;SDS011;721;48.168;12.818;2022-08-19T06:31:49;6.70;;;6.20;;
1454;SDS011;721;48.168;12.818;2022-08-19T06:34:17;7.80;;;7.17;;
1454;SDS011;721;48.168;12.818;2022-08-19T06:36:45;7.30;;;6.60;;
1454;SDS011;721;48.168;12.818;2022-08-19T06:39:14;6.43;;;5.93;;
1454;SDS011;721;48.168;12.818;2022-08-19T06:41:45;6.60;;;6.00;;
1454;SDS011;721;48.168;12.818;2022-08-19T06:44:13;6.63;;;6.03;;
1454;SDS011;721;48.168;12.818;2022-08-19T06:46:41;5.90;;;5.40;;
1454;SDS011;721;48.168;12.818;2022-08-19T06:49:09;6.40;;;5.80;;
1454;SDS011;721;48.168;12.818;2022-08-19T06:51:39;6.63;;;6.13;;
1454;SDS011;721;48.168;12.818;2022-08-19T06:54:06;5.90;;;5.40;;
1454;SDS011;721;48.168;12.818;2022-08-19T06:56:34;5.77;;;5.37;;
1454;SDS011;721;48.168;12.818;2022-08-19T06:59:02;6.23;;;5.73;;
1454;SDS011;721;48.168;12.818;2022-08-19T07:01:30;6.00;;;5.40;;
1454;SDS011;721;48.168;12.818;2022-08-19T07:04:03;7.10;;;6.50;;
1454;SDS011;721;48.168;12.818;2022-08-19T07:06:32;8.70;;;5.90;;
1454;SDS011;721;48.168;12.818;2022-08-19T07:08:59;5.60;;;5.13;;
1454;SDS011;721;48.168;12.818;2022-08-19T07:11:26;5.63;;;5.13;;
1454;SDS011;721;48.168;12.818;2022-08-19T07:13:53;5.97;;;5.37;;
1454;SDS011;721;48.168;12.818;2022-08-19T07:16:20;5.93;;;5.33;;
1454;SDS011;721;48.168;12.818;2022-08-19T07:18:47;6.07;;;5.40;;
1454;SDS011;721;48.168;12.818;2022-08-19T07:21:15;12.37;;;6.57;;
1454;SDS011;721;48.168;12.818;2022-08-19T07:23:45;6.53;;;5.90;;
1454;SDS011;721;48.168;12.818;2022-08-19T07:26:14;5.63;;;5.23;;
1454;SDS011;721;48.168;12.818;2022-08-19T07:28:42;6.27;;;5.67;;
1454;SDS011;721;48.168;12.818;2022-08-19T07:31:10;6.60;;;5.90;;
1454;SDS011;721;48.168;12.818;2022-08-19T07:33:38;6.90;;;6.30;;
1454;SDS011;721;48.168;12.818;2022-08-19T07:36:06;6.87;;;6.27;;
1454;SDS011;721;48.168;12.818;2022-08-19T07:38:36;5.10;;;4.70;;
1454;SDS011;721;48.168;12.818;2022-08-19T07:41:06;6.57;;;5.73;;
1454;SDS011;721;48.168;12.818;2022-08-19T07:43:33;6.80;;;6.27;;
1454;SDS011;721;48.168;12.818;2022-08-19T07:45:59;6.47;;;5.87;;
1454;SDS011;721;48.168;12.818;2022-08-19T07:48:27;6.40;;;5.80;;
1454;SDS011;721;48.168;12.818;2022-08-19T07:50:55;6.37;;;5.87;;
1454;SDS011;721;48.168;12.818;2022-08-19T07:53:24;6.87;;;6.27;;
1454;SDS011;721;48.168;12.818;2022-08-19T07:55:51;6.77;;;6.03;;
1454;SDS011;721;48.168;12.818;2022-08-19T07:58:20;7.90;;;7.20;;
1454;SDS011;721;48.168;12.818;2022-08-19T08:00:48;8.37;;;7.60;;
1454;SDS011;721;48.168;12.818;2022-08-19T08:03:17;7.83;;;7.03;;
1454;SDS011;721;48.168;12.818;2022-08-19T08:05:46;8.13;;;7.43;;
1454;SDS011;721;48.168;12.818;2022-08-19T08:08:29;6.93;;;6.33;;
1454;SDS011;721;48.168;12.818;2022-08-19T08:11:15;8.10;;;7.30;;
1454;SDS011;721;48.168;12.818;2022-08-19T08:13:44;7.83;;;7.03;;
1454;SDS011;721;48.168;12.818;2022-08-19T08:16:13;9.30;;;8.50;;
1454;SDS011;721;48.168;12.818;2022-08-19T08:18:40;11.27;;;9.30;;
1454;SDS011;721;48.168;12.818;2022-08-19T08:21:08;10.60;;;6.83;;
1454;SDS011;721;48.168;12.818;2022-08-19T08:23:35;7.30;;;6.60;;
1454;SDS011;721;48.168;12.818;2022-08-19T08:26:02;9.27;;;8.37;;
1454;SDS011;721;48.168;12.818;2022-08-19T08:28:29;8.30;;;7.53;;
1454;SDS011;721;48.168;12.818;2022-08-19T08:30:58;8.80;;;7.90;;
1454;SDS011;721;48.168;12.818;2022-08-19T08:33:26;6.87;;;6.27;;
1454;SDS011;721;48.168;12.818;2022-08-19T08:35:54;8.57;;;7.77;;
1454;SDS011;721;48.168;12.818;2022-08-19T08:38:22;8.50;;;7.70;;
1454;SDS011;721;48.168;12.818;2022-08-19T08:40:49;8.50;;;7.77;;
1454;SDS011;721;48.168;12.818;2022-08-19T08:43:22;8.80;;;8.10;;
1454;SDS011;721;48.168;12.818;2022-08-19T08:45:54;9.20;;;8.40;;
1454;SDS011;721;48.168;12.818;2022-08-19T08:48:30;9.83;;;8.83;;
1454;SDS011;721;48.168;12.818;2022-08-19T08:51:03;11.90;;;10.67;;
1454;SDS011;721;48.168;12.818;2022-08-19T08:53:35;12.40;;;11.10;;
1454;SDS011;721;48.168;12.818;2022-08-19T08:56:04;12.80;;;10.33;;
1454;SDS011;721;48.168;12.818;2022-08-19T08:58:40;8.90;;;8.10;;
1454;SDS011;721;48.168;12.818;2022-08-19T09:01:14;8.47;;;7.73;;
1454;SDS011;721;48.168;12.818;2022-08-19T09:03:41;8.07;;;7.47;;
1454;SDS011;721;48.168;12.818;2022-08-19T09:06:12;12.90;;;9.90;;
1454;SDS011;721;48.168;12.818;2022-08-19T09:08:46;9.40;;;8.60;;
1454;SDS011;721;48.168;12.818;2022-08-19T09:11:19;8.70;;;7.90;;
1454;SDS011;721;48.168;12.818;2022-08-19T09:14:01;12.40;;;11.10;;
1454;SDS011;721;48.168;12.818;2022-08-19T09:16:35;15.10;;;13.70;;
1454;SDS011;721;48.168;12.818;2022-08-19T09:19:06;12.87;;;11.87;;
1454;SDS011;721;48.168;12.818;2022-08-19T09:21:34;12.13;;;11.13;;
1454;SDS011;721;48.168;12.818;2022-08-19T09:24:01;10.70;;;9.53;;
1454;SDS011;721;48.168;12.818;2022-08-19T09:26:29;11.37;;;10.47;;
1454;SDS011;721;48.168;12.818;2022-08-19T09:28:57;12.40;;;11.10;;
1454;SDS011;721;48.168;12.818;2022-08-19T09:31:26;10.60;;;9.70;;
1454;SDS011;721;48.168;12.818;2022-08-19T09:33:56;9.50;;;8.67;;
1454;SDS011;721;48.168;12.818;2022-08-19T09:36:24;8.30;;;7.57;;
1454;SDS011;721;48.168;12.818;2022-08-19T09:38:54;10.03;;;9.23;;
1454;SDS011;721;48.168;12.818;2022-08-19T09:41:22;8.93;;;8.23;;
1454;SDS011;721;48.168;12.818;2022-08-19T09:43:52;8.80;;;8.10;;
1454;SDS011;721;48.168;12.818;2022-08-19T09:46:21;10.33;;;9.43;;
1454;SDS011;721;48.168;12.818;2022-08-19T09:48:49;9.50;;;8.60;;
1454;SDS011;721;48.168;12.818;2022-08-19T09:51:19;8.20;;;7.60;;
1454;SDS011;721;48.168;12.818;2022-08-19T09:53:48;8.53;;;7.83;;
1454;SDS011;721;48.168;12.818;2022-08-19T09:56:17;8.03;;;7.23;;
1454;SDS011;721;48.168;12.818;2022-08-19T09:58:45;8.13;;;7.33;;
1454;SDS011;721;48.168;12.818;2022-08-19T10:01:15;9.17;;;8.37;;
1454;SDS011;721;48.168;12.818;2022-08-19T10:03:43;8.93;;;7.67;;
1454;SDS011;721;48.168;12.818;2022-08-19T10:06:12;7.57;;;6.97;;
1454;SDS011;721;48.168;12.818;2022-08-19T10:08:40;9.03;;;8.23;;
1454;SDS011;721;48.168;12.818;2022-08-19T10:11:07;8.20;;;7.60;;
1454;SDS011;721;48.168;12.818;2022-08-19T10:13:35;9.70;;;8.90;;
1454;SDS011;721;48.168;12.818;2022-08-19T10:16:03;9.67;;;8.77;;
1454;SDS011;721;48.168;12.818;2022-08-19T10:18:31;9.20;;;8.57;;
1454;SDS011;721;48.168;12.818;2022-08-19T10:21:03;10.90;;;10.10;;
1454;SDS011;721;48.168;12.818;2022-08-19T10:23:33;10.50;;;9.60;;
1454;SDS011;721;48.168;12.818;2022-08-19T10:26:03;11.53;;;10.27;;
1454;SDS011;721;48.168;12.818;2022-08-19T10:28:31;10.50;;;9.60;;
1454;SDS011;721;48.168;12.818;2022-08-19T10:30:58;11.63;;;10.73;;
1454;SDS011;721;48.168;12.818;2022-08-19T10:33:29;14.07;;;13.07;;
1454;SDS011;721;48.168;12.818;2022-08-19T10:35:58;12.80;;;11.70;;
1454;SDS011;721;48.168;12.818;2022-08-19T10:38:25;11.90;;;10.90;;
1454;SDS011;721;48.168;12.818;2022-08-19T10:40:53;12.73;;;11.73;;
1454;SDS011;721;48.168;12.818;2022-08-19T10:43:21;11.70;;;10.63;;
1454;SDS011;721;48.168;12.818;2022-08-19T10:45:51;12.53;;;11.43;;
1454;SDS011;721;48.168;12.818;2022-08-19T10:48:21;12.00;;;10.90;;
1454;SDS011;721;48.168;12.818;2022-08-19T10:50:48;11.70;;;10.70;;
1454;SDS011;721;48.168;12.818;2022-08-19T10:53:32;11.30;;;10.40;;
1454;SDS011;721;48.168;12.818;2022-08-19T10:55:58;8.97;;;8.17;;
1454;SDS011;721;48.168;12.818;2022-08-19T10:58:44;12.97;;;11.87;;
1454;SDS011;721;48.168;12.818;2022-08-19T11:01:11;10.83;;;9.90;;
1454;SDS011;721;48.168;12.818;2022-08-19T11:03:38;11.13;;;10.23;;
1454;SDS011;721;48.168;12.818;2022-08-19T11:06:06;10.90;;;10.10;;
1454;SDS011;721;48.168;12.818;2022-08-19T11:08:34;11.57;;;10.60;;
1454;SDS011;721;48.168;12.818;2022-08-19T11:11:03;11.07;;;10.17;;
1454;SDS011;721;48.168;12.818;2022-08-19T11:13:32;10.67;;;9.70;;
1454;SDS011;721;48.168;12.818;2022-08-19T11:16:04;10.77;;;9.80;;
1454;SDS011;721;48.168;12.818;2022-08-19T11:18:33;11.23;;;10.30;;
1454;SDS011;721;48.168;12.818;2022-08-19T11:21:06;9.53;;;8.73;;
1454;SDS011;721;48.168;12.818;2022-08-19T11:23:34;10.77;;;9.77;;
1454;SDS011;721;48.168;12.818;2022-08-19T11:26:01;10.90;;;10.00;;
1454;SDS011;721;48.168;12.818;2022-08-19T11:28:28;10.07;;;9.27;;
1454;SDS011;721;48.168;12.818;2022-08-19T11:30:55;10.30;;;9.30;;
1454;SDS011;721;48.168;12.818;2022-08-19T11:33:23;11.13;;;10.33;;
1454;SDS011;721;48.168;12.818;2022-08-19T11:35:51;9.20;;;8.37;;
1454;SDS011;721;48.168;12.818;2022-08-19T11:38:18;8.33;;;7.63;;
1454;SDS011;721;48.168;12.818;2022-08-19T11:40:45;11.33;;;10.17;;
1454;SDS011;721;48.168;12.818;2022-08-19T11:43:19;9.23;;;8.43;;
1454;SDS011;721;48.168;12.818;2022-08-19T11:45:46;9.93;;;9.23;;
1454;SDS011;721;48.168;12.818;2022-08-19T11:48:13;10.90;;;10.00;;
1454;SDS011;721;48.168;12.818;2022-08-19T11:50:41;10.20;;;9.40;;
1454;SDS011;721;48.168;12.818;2022-08-19T11:53:08;9.50;;;8.73;;
1454;SDS011;721;48.168;12.818;2022-08-19T11:55:36;9.63;;;8.73;;
1454;SDS011;721;48.168;12.818;2022-08-19T11:58:04;9.90;;;9.10;;
1454;SDS011;721;48.168;12.818;2022-08-19T12:00:32;10.97;;;10.03;;
1454;SDS011;721;48.168;12.818;2022-08-19T12:03:00;10.07;;;9.03;;
1454;SDS011;721;48.168;12.818;2022-08-19T12:05:27;8.93;;;8.17;;
1454;SDS011;721;48.168;12.818;2022-08-19T12:07:55;8.27;;;7.57;;
1454;SDS011;721;48.168;12.818;2022-08-19T12:10:22;9.73;;;8.93;;
1454;SDS011;721;48.168;12.818;2022-08-19T12:12:49;9.87;;;9.07;;
1454;SDS011;721;48.168;12.818;2022-08-19T12:15:16;9.60;;;8.80;;
1454;SDS011;721;48.168;12.818;2022-08-19T12:17:43;7.67;;;7.00;;
1454;SDS011;721;48.168;12.818;2022-08-19T12:20:11;10.00;;;9.20;;
1454;SDS011;721;48.168;12.818;2022-08-19T12:22:40;9.37;;;8.30;;
1454;SDS011;721;48.168;12.818;2022-08-19T12:25:09;9.30;;;8.60;;
1454;SDS011;721;48.168;12.818;2022-08-19T12:27:37;9.10;;;8.00;;
1454;SDS011;721;48.168;12.818;2022-08-19T12:30:05;9.33;;;7.50;;
1454;SDS011;721;48.168;12.818;2022-08-19T12:32:34;8.00;;;7.40;;
1454;SDS011;721;48.168;12.818;2022-08-19T12:35:02;7.80;;;7.20;;
1454;SDS011;721;48.168;12.818;2022-08-19T12:37:29;8.30;;;7.70;;
1454;SDS011;721;48.168;12.818;2022-08-19T12:39:57;7.93;;;7.33;;
1454;SDS011;721;48.168;12.818;2022-08-19T12:42:26;7.17;;;6.67;;
1454;SDS011;721;48.168;12.818;2022-08-19T12:44:53;8.80;;;8.13;;
1454;SDS011;721;48.168;12.818;2022-08-19T12:47:20;6.90;;;6.40;;
1454;SDS011;721;48.168;12.818;2022-08-19T12:49:47;6.03;;;5.43;;
1454;SDS011;721;48.168;12.818;2022-08-19T12:52:15;5.33;;;4.93;;
1454;SDS011;721;48.168;12.818;2022-08-19T12:54:42;7.17;;;6.67;;
1454;SDS011;721;48.168;12.818;2022-08-19T12:57:09;7.70;;;7.00;;
1454;SDS011;721;48.168;12.818;2022-08-19T12:59:39;7.30;;;6.70;;
1454;SDS011;721;48.168;12.818;2022-08-19T13:02:07;7.23;;;6.23;;
1454;SDS011;721;48.168;12.818;2022-08-19T13:04:34;5.77;;;5.40;;
1454;SDS011;721;48.168;12.818;2022-08-19T13:07:05;5.70;;;5.30;;
1454;SDS011;721;48.168;12.818;2022-08-19T13:09:33;5.50;;;5.10;;
1454;SDS011;721;48.168;12.818;2022-08-19T13:12:00;6.90;;;6.33;;
1454;SDS011;721;48.168;12.818;2022-08-19T13:14:28;7.13;;;6.43;;
1454;SDS011;721;48.168;12.818;2022-08-19T13:16:58;6.13;;;5.63;;
1454;SDS011;721;48.168;12.818;2022-08-19T13:19:25;5.70;;;5.30;;
1454;SDS011;721;48.168;12.818;2022-08-19T13:21:51;5.13;;;4.73;;
1454;SDS011;721;48.168;12.818;2022-08-19T13:24:20;6.17;;;5.67;;
1454;SDS011;721;48.168;12.818;2022-08-19T13:26:47;6.50;;;5.90;;
1454;SDS011;721;48.168;12.818;2022-08-19T13:29:14;6.50;;;5.90;;
1454;SDS011;721;48.168;12.818;2022-08-19T13:31:59;6.17;;;5.77;;
1454;SDS011;721;48.168;12.818;2022-08-19T13:34:43;6.40;;;5.90;;
1454;SDS011;721;48.168;12.818;2022-08-19T13:37:14;7.87;;;7.27;;
1454;SDS011;721;48.168;12.818;2022-08-19T13:40:01;6.73;;;6.23;;
1454;SDS011;721;48.168;12.818;2022-08-19T13:42:28;7.47;;;6.70;;
1454;SDS011;721;48.168;12.818;2022-08-19T13:44:56;7.47;;;6.77;;
1454;SDS011;721;48.168;12.818;2022-08-19T13:47:24;5.30;;;4.90;;
1454;SDS011;721;48.168;12.818;2022-08-19T13:49:51;8.40;;;7.70;;
1454;SDS011;721;48.168;12.818;2022-08-19T13:52:18;7.63;;;7.03;;
1454;SDS011;721;48.168;12.818;2022-08-19T13:54:45;6.73;;;6.13;;
1454;SDS011;721;48.168;12.818;2022-08-19T13:57:12;6.13;;;5.63;;
1454;SDS011;721;48.168;12.818;2022-08-19T13:59:39;8.30;;;7.70;;
1454;SDS011;721;48.168;12.818;2022-08-19T14:02:06;7.80;;;7.10;;
1454;SDS011;721;48.168;12.818;2022-08-19T14:04:34;6.57;;;6.07;;
1454;SDS011;721;48.168;12.818;2022-08-19T14:07:02;5.33;;;4.87;;
1454;SDS011;721;48.168;12.818;2022-08-19T14:09:29;6.83;;;6.23;;
1454;SDS011;721;48.168;12.818;2022-08-19T14:11:56;5.43;;;4.97;;
1454;SDS011;721;48.168;12.818;2022-08-19T14:14:23;6.37;;;4.97;;
1454;SDS011;721;48.168;12.818;2022-08-19T14:16:50;6.10;;;4.90;;
1454;SDS011;721;48.168;12.818;2022-08-19T14:19:17;5.80;;;5.40;;
1454;SDS011;721;48.168;12.818;2022-08-19T14:21:45;6.87;;;6.27;;
1454;SDS011;721;48.168;12.818;2022-08-19T14:24:12;5.00;;;4.60;;
1454;SDS011;721;48.168;12.818;2022-08-19T14:26:39;8.63;;;5.93;;
1454;SDS011;721;48.168;12.818;2022-08-19T14:29:06;5.23;;;4.83;;
1454;SDS011;721;48.168;12.818;2022-08-19T14:31:33;5.80;;;5.40;;
1454;SDS011;721;48.168;12.818;2022-08-19T14:33:59;5.63;;;5.23;;
1454;SDS011;721;48.168;12.818;2022-08-19T14:36:26;4.90;;;4.60;;
1454;SDS011;721;48.168;12.818;2022-08-19T14:38:54;5.80;;;5.50;;
1454;SDS011;721;48.168;12.818;2022-08-19T14:41:22;5.60;;;5.20;;
1454;SDS011;721;48.168;12.818;2022-08-19T14:43:50;5.60;;;5.03;;
1454;SDS011;721;48.168;12.818;2022-08-19T14:46:19;4.70;;;4.33;;
1454;SDS011;721;48.168;12.818;2022-08-19T14:48:48;5.20;;;4.80;;
1454;SDS011;721;48.168;12.818;2022-08-19T14:51:15;4.83;;;4.53;;
1454;SDS011;721;48.168;12.818;2022-08-19T14:53:43;4.43;;;4.13;;
1454;SDS011;721;48.168;12.818;2022-08-19T14:56:12;4.30;;;4.00;;
1454;SDS011;721;48.168;12.818;2022-08-19T14:58:40;5.57;;;5.10;;
1454;SDS011;721;48.168;12.818;2022-08-19T15:01:09;4.97;;;4.57;;
1454;SDS011;721;48.168;12.818;2022-08-19T15:03:36;6.40;;;5.90;;
1454;SDS011;721;48.168;12.818;2022-08-19T15:06:04;5.70;;;5.20;;
1454;SDS011;721;48.168;12.818;2022-08-19T15:08:32;6.67;;;6.17;;
1454;SDS011;721;48.168;12.818;2022-08-19T15:11:01;7.27;;;6.53;;
1454;SDS011;721;48.168;12.818;2022-08-19T15:13:30;6.47;;;5.97;;
1454;SDS011;721;48.168;12.818;2022-08-19T15:15:57;5.97;;;5.47;;
1454;SDS011;721;48.168;12.818;2022-08-19T15:18:24;7.00;;;6.40;;